Time;durP1;ratioP1;P1;durP2;ratioP2;P2;SDS_P1;SDS_P2;PMS_P1;PMS_P2;Temp;Humidity;BMP_temperature;BMP_pressure;BME280_temperature;BME280_humidity;BME280_pressure;Samples;Min_cycle;Max_cycle;Signal;HPM_P1;HPM_P2
2021/10/06 03:39:40;;;;;;;3.84;0.50;;;;;;;10.53;89.44;99282.28;2219895;71;20212;31
2021/10/06 03:42:42;;;;;;;13.10;2.54;;;;;;;10.52;89.40;99290.94;1974349;82;20175;-80
2021/10/06 03:45:45;;;;;;;6.19;1.02;;;;;;;10.52;89.16;99284.91;1992047;82;20132;-80
2021/10/06 03:48:51;;;;;;;10.98;0.85;;;;;;;10.51;89.24;99290.97;1982987;82;20184;-81
2021/10/06 03:51:54;;;;;;;7.43;1.42;;;;;;;10.50;89.08;99287.50;1979961;82;20180;-80
2021/10/06 03:54:57;;;;;;;5.45;0.79;;;;;;;10.49;88.93;99292.72;1983121;82;20212;-79
2021/10/06 03:57:59;;;;;;;3.89;0.57;;;;;;;10.49;88.91;99295.31;1989316;82;20185;-80
2021/10/06 04:01:03;;;;;;;5.75;0.76;;;;;;;10.52;89.18;99296.16;1982898;82;20140;-80
2021/10/06 04:04:05;;;;;;;6.99;0.56;;;;;;;10.53;89.02;99297.00;1983416;82;21754;-80
2021/10/06 04:07:08;;;;;;;5.22;0.66;;;;;;;10.55;89.01;99301.31;1974400;82;20140;-80
2021/10/06 04:10:11;;;;;;;3.47;0.68;;;;;;;10.53;88.93;99300.47;1986414;82;20199;-79
2021/10/06 04:13:13;;;;;;;5.93;0.64;;;;;;;10.51;88.82;99298.75;1983966;82;20185;-80
2021/10/06 04:16:16;;;;;;;4.38;0.88;;;;;;;10.52;88.62;99303.94;1977342;82;20164;-80
2021/10/06 04:19:19;;;;;;;7.32;1.01;;;;;;;10.53;88.61;99308.25;1991570;82;20246;-79
2021/10/06 04:22:21;;;;;;;2.38;0.55;;;;;;;10.50;88.39;99316.06;1981121;82;20199;-80
2021/10/06 04:25:24;;;;;;;4.30;0.64;;;;;;;10.48;88.41;99303.97;1985348;82;20141;-80
2021/10/06 04:28:27;;;;;;;3.90;0.64;;;;;;;10.48;88.36;99314.34;1984809;82;20257;-80
2021/10/06 04:31:30;;;;;;;4.82;0.80;;;;;;;10.44;88.15;99313.50;1992225;82;20170;-80
2021/10/06 04:34:32;;;;;;;2.36;0.52;;;;;;;10.44;88.17;99316.09;1979350;82;20141;-80
2021/10/06 04:37:37;;;;;;;5.19;0.70;;;;;;;10.40;88.11;99313.50;1985276;82;20132;-80
2021/10/06 04:40:40;;;;;;;2.91;0.70;;;;;;;10.40;88.21;99316.97;1993620;82;20168;-80
2021/10/06 04:43:43;;;;;;;3.70;0.70;;;;;;;10.38;88.24;99321.31;1987312;82;20192;-81
2021/10/06 04:46:47;;;;;;;3.55;0.60;;;;;;;10.35;88.32;99317.88;1986371;82;20192;-80
2021/10/06 04:49:50;;;;;;;3.04;0.47;;;;;;;10.35;88.39;99316.13;1984910;82;20203;-80
2021/10/06 04:52:52;;;;;;;3.94;0.44;;;;;;;10.34;88.22;99319.59;1984848;82;20133;-80
2021/10/06 04:55:55;;;;;;;5.78;0.75;;;;;;;10.38;88.39;99330.81;1981887;82;20188;-80
2021/10/06 04:58:58;;;;;;;2.67;0.90;;;;;;;10.37;88.33;99324.78;1985904;82;20188;-79
2021/10/06 05:02:01;;;;;;;1.39;0.50;;;;;;;10.38;88.47;99317.84;1979421;82;20183;-80
2021/10/06 05:05:04;;;;;;;5.20;0.74;;;;;;;10.36;88.51;99312.66;1992389;82;20170;-81
2021/10/06 05:08:08;;;;;;;3.83;0.55;;;;;;;10.35;88.36;99316.13;1989098;82;20200;-80
2021/10/06 05:11:12;;;;;;;6.41;0.65;;;;;;;10.34;88.49;99321.34;1981660;82;20136;-79
2021/10/06 05:14:14;;;;;;;3.64;0.50;;;;;;;10.34;88.58;99329.97;1991123;82;20148;-80
2021/10/06 05:17:18;;;;;;;6.00;0.60;;;;;;;10.33;88.66;99327.41;1988663;79;43752;-80
2021/10/06 05:20:20;;;;;;;3.22;0.60;;;;;;;10.28;88.73;99332.63;1978148;82;20188;-79
2021/10/06 05:23:23;;;;;;;3.31;0.69;;;;;;;10.27;88.81;99341.28;1984364;82;20162;-80
2021/10/06 05:26:26;;;;;;;6.47;0.80;;;;;;;10.28;88.88;99340.41;1985547;82;20180;-80
2021/10/06 05:29:28;;;;;;;3.85;0.66;;;;;;;10.30;88.93;99333.47;1972879;83;20203;-80
2021/10/06 05:32:31;;;;;;;3.55;0.70;;;;;;;10.34;88.93;99332.56;1978480;80;43162;-81
2021/10/06 05:35:34;;;;;;;5.94;0.90;;;;;;;10.34;88.82;99340.38;1990578;82;20136;-80
2021/10/06 05:38:36;;;;;;;4.51;0.46;;;;;;;10.36;88.78;99342.94;1976623;82;20136;-80
2021/10/06 05:41:39;;;;;;;3.91;0.80;;;;;;;10.36;88.69;99337.75;1989190;82;20207;-80
2021/10/06 05:44:42;;;;;;;5.03;0.71;;;;;;;10.34;88.50;99335.19;1982997;82;20140;-80
2021/10/06 05:47:45;;;;;;;3.40;0.50;;;;;;;10.33;88.47;99319.63;1991757;79;141590;-82
2021/10/06 05:50:48;;;;;;;3.94;0.61;;;;;;;10.28;88.43;99333.47;1982647;82;20140;-80
2021/10/06 05:53:50;;;;;;;6.01;0.52;;;;;;;10.26;88.40;99344.75;1978871;82;20199;-80
2021/10/06 05:56:53;;;;;;;2.63;0.65;;;;;;;10.20;88.43;99361.13;2001303;82;20140;-80
2021/10/06 05:59:56;;;;;;;4.32;0.65;;;;;;;10.21;88.78;99367.22;1976237;82;20197;-81
2021/10/06 06:02:58;;;;;;;3.47;0.80;;;;;;;10.24;88.87;99373.28;1992183;80;29297;-79
2021/10/06 06:06:02;;;;;;;3.92;0.60;;;;;;;10.26;89.09;99376.75;1975854;82;20211;-80
2021/10/06 06:09:04;;;;;;;3.29;0.60;;;;;;;10.25;88.83;99387.13;1976875;82;20136;-80
2021/10/06 06:12:09;;;;;;;5.30;0.70;;;;;;;10.24;89.01;99394.06;1976719;82;20148;-79
2021/10/06 06:15:12;;;;;;;4.24;0.68;;;;;;;10.25;88.90;99398.38;1986614;82;20199;-81
2021/10/06 06:18:15;;;;;;;4.57;0.55;;;;;;;10.28;88.73;99403.53;1976915;82;20128;-80
2021/10/06 06:21:18;;;;;;;2.10;0.46;;;;;;;10.31;88.63;99400.06;1976774;82;20141;-80
2021/10/06 06:24:21;;;;;;;4.96;0.66;;;;;;;10.32;88.49;99409.59;1990554;82;20159;-80
2021/10/06 06:27:23;;;;;;;6.88;0.90;;;;;;;10.35;88.52;99411.31;1975364;82;20180;-80
2021/10/06 06:30:26;;;;;;;4.90;0.65;;;;;;;10.32;88.42;99414.78;1981205;82;20133;-81
2021/10/06 06:33:29;;;;;;;5.95;0.70;;;;;;;10.33;88.33;99423.41;1986068;82;20199;-80
2021/10/06 06:36:31;;;;;;;5.13;0.60;;;;;;;10.35;88.19;99430.34;1983693;82;20185;-80
2021/10/06 06:39:34;;;;;;;2.95;0.50;;;;;;;10.31;87.70;99423.44;1984553;82;20208;-80
2021/10/06 06:42:37;;;;;;;3.89;0.54;;;;;;;10.31;87.68;99435.53;1979745;82;20148;-80
2021/10/06 06:45:39;;;;;;;3.92;0.79;;;;;;;10.31;87.95;99430.34;1980667;82;20204;-81
2021/10/06 06:48:42;;;;;;;4.05;0.54;;;;;;;10.34;88.03;99423.41;1977473;82;20184;-79
2021/10/06 06:51:45;;;;;;;4.05;0.50;;;;;;;10.38;87.88;99422.53;1973874;82;20204;-81
2021/10/06 06:54:48;;;;;;;3.13;0.60;;;;;;;10.40;87.52;99427.72;1980585;82;20148;-80
2021/10/06 06:57:50;;;;;;;4.03;0.61;;;;;;;10.40;87.30;99431.19;1977412;82;20141;-80
2021/10/06 07:00:53;;;;;;;4.88;0.60;;;;;;;10.43;87.15;99436.38;1973060;82;20267;-80
2021/10/06 07:03:56;;;;;;;5.51;0.70;;;;;;;10.48;87.13;99441.56;1975014;82;20169;-81
2021/10/06 07:06:58;;;;;;;4.28;0.55;;;;;;;10.51;86.78;99449.31;1978501;82;20140;-80
2021/10/06 07:10:03;;;;;;;5.50;0.80;;;;;;;10.57;86.74;99446.69;1971143;82;20143;-80
2021/10/06 07:13:06;;;;;;;6.54;0.54;;;;;;;10.63;86.83;99453.63;1976804;82;20136;-80
2021/10/06 07:16:09;;;;;;;3.67;0.60;;;;;;;10.68;86.65;99450.13;1978741;82;20136;-81
2021/10/06 07:19:12;;;;;;;5.82;0.82;;;;;;;10.77;86.42;99457.00;1975463;82;20180;-79
2021/10/06 07:22:17;;;;;;;3.51;0.70;;;;;;;10.87;86.19;99456.97;1979435;82;20129;-81
2021/10/06 07:25:20;;;;;;;7.03;0.74;;;;;;;10.92;85.85;99456.94;1976754;82;20137;-81
2021/10/06 07:28:22;;;;;;;2.50;0.54;;;;;;;10.94;85.17;99467.31;1974942;82;20189;-81
2021/10/06 07:31:25;;;;;;;3.64;0.54;;;;;;;10.98;85.14;99466.47;1976308;82;20251;-81
2021/10/06 07:34:28;;;;;;;3.51;0.75;;;;;;;11.02;85.00;99463.81;1975791;82;20140;-81
2021/10/06 07:37:30;;;;;;;3.51;0.60;;;;;;;11.04;84.70;99466.41;1973439;82;20227;-81
2021/10/06 07:40:33;;;;;;;5.80;0.60;;;;;;;11.06;84.22;99473.31;1977144;82;20170;-81
2021/10/06 07:43:36;;;;;;;2.96;0.63;;;;;;;11.11;83.92;99468.09;1969631;82;20257;-83
2021/10/06 07:46:39;;;;;;;4.57;0.70;;;;;;;11.11;83.68;99468.09;1971893;82;20157;-81
2021/10/06 07:49:42;;;;;;;3.83;0.63;;;;;;;11.20;83.86;99484.53;1976832;82;20225;-82
2021/10/06 07:52:45;;;;;;;3.33;0.57;;;;;;;11.28;83.89;99484.47;1973841;82;20156;-81
2021/10/06 07:55:47;;;;;;;4.13;0.64;;;;;;;11.32;83.17;99488.81;1974525;82;20144;-82
2021/10/06 07:58:51;;;;;;;3.80;0.69;;;;;;;11.34;83.00;99505.25;1977449;82;20144;-81
2021/10/06 08:01:54;;;;;;;3.36;0.60;;;;;;;11.35;83.15;99496.56;1973767;82;20152;-81
2021/10/06 08:04:57;;;;;;;5.70;0.64;;;;;;;11.34;83.13;99512.19;1973422;82;20305;-81
2021/10/06 08:07:59;;;;;;;2.89;0.56;;;;;;;11.25;82.26;99499.22;1971466;82;20163;-81
2021/10/06 08:11:02;;;;;;;6.84;0.68;;;;;;;11.21;82.48;99508.78;1974120;82;20140;-81
2021/10/06 08:14:05;;;;;;;2.60;0.50;;;;;;;11.24;83.02;99503.56;1976647;82;20203;-81
2021/10/06 08:17:08;;;;;;;5.39;0.90;;;;;;;11.31;83.24;99499.19;1980419;80;23186;-82
2021/10/06 08:20:11;;;;;;;3.39;0.60;;;;;;;11.41;83.22;99487.88;1973954;83;20243;-82
2021/10/06 08:23:17;;;;;;;4.03;0.63;;;;;;;11.55;82.99;99490.38;1977767;83;20176;-81
2021/10/06 08:26:19;;;;;;;3.26;0.68;;;;;;;11.68;82.66;99495.50;1970183;83;20167;-82
2021/10/06 08:29:22;;;;;;;3.96;0.75;;;;;;;11.81;82.01;99506.69;1973095;82;20167;-81
2021/10/06 08:32:25;;;;;;;2.56;0.60;;;;;;;11.85;81.21;99510.13;1976352;79;35450;-81
2021/10/06 08:35:27;;;;;;;5.40;0.68;;;;;;;11.99;81.35;99508.28;1972062;82;20203;-81
2021/10/06 08:38:31;;;;;;;5.43;0.49;;;;;;;12.13;80.52;99500.34;1973049;83;20136;-81
2021/10/06 08:41:35;;;;;;;5.14;0.61;;;;;;;12.37;80.06;99503.59;1973298;82;20136;-82
2021/10/06 08:44:39;;;;;;;5.18;0.70;;;;;;;12.58;78.53;99505.13;1982398;82;20188;-81
2021/10/06 08:47:44;;;;;;;4.82;0.70;;;;;;;12.77;78.74;99513.59;1982033;80;58088;-82
2021/10/06 08:50:47;;;;;;;4.21;0.85;;;;;;;12.81;77.17;99512.69;1973320;83;20152;-81
2021/10/06 08:53:50;;;;;;;6.68;1.13;;;;;;;12.93;76.67;99519.50;1974368;82;20201;-82
2021/10/06 08:56:53;;;;;;;5.46;0.70;;;;;;;13.13;76.63;99525.34;1987680;82;20156;-82
2021/10/06 08:59:56;;;;;;;6.04;1.10;;;;;;;13.13;75.24;99519.25;1976540;82;20140;-81
2021/10/06 09:03:08;;;;;;;7.26;0.69;;;;;;;13.02;75.70;99522.84;1974184;80;35491;-82
2021/10/06 09:06:14;;;;;;;4.94;1.00;;;;;;;12.93;75.59;99525.59;1974143;82;20260;-80
2021/10/06 09:09:18;;;;;;;7.41;0.65;;;;;;;13.06;76.19;99528.00;1978027;82;20165;-81
2021/10/06 09:12:21;;;;;;;12.52;0.86;;;;;;;13.51;75.35;99518.78;1972471;82;20176;-81
2021/10/06 09:15:27;;;;;;;6.38;0.84;;;;;;;13.87;73.03;99527.81;1974752;82;20199;-81
2021/10/06 09:18:32;;;;;;;3.74;0.57;;;;;;;13.86;72.63;99526.06;1978023;83;20203;-82
2021/10/06 09:21:53;;;;;;;2.45;0.50;;;;;;;14.06;72.44;99523.16;1976310;82;20128;-81
2021/10/06 09:25:03;;;;;;;6.00;0.90;;;;;;;14.40;72.90;99526.06;1979971;83;20179;-80
2021/10/06 09:28:06;;;;;;;7.16;0.70;;;;;;;14.58;71.21;99532.72;1970542;83;20133;-82
2021/10/06 09:31:18;;;;;;;4.07;0.70;;;;;;;14.68;71.05;99529.03;1972796;83;20176;-82
2021/10/06 09:34:21;;;;;;;3.20;0.74;;;;;;;14.65;71.44;99529.97;1972078;82;20269;-82
2021/10/06 09:37:24;;;;;;;3.64;0.60;;;;;;;14.53;70.88;99538.00;1976756;82;20244;-81
2021/10/06 09:40:31;;;;;;;4.65;0.76;;;;;;;14.48;70.53;99532.88;1974763;82;20205;-81
2021/10/06 09:43:33;;;;;;;4.20;0.50;;;;;;;14.52;70.16;99536.28;1980108;82;20271;-81
2021/10/06 09:46:54;;;;;;;4.03;0.54;;;;;;;14.46;70.33;99542.50;1970145;83;20132;-82
2021/10/06 09:49:58;;;;;;;9.71;0.60;;;;;;;14.28;70.26;99539.31;1974221;83;20148;-81
2021/10/06 09:53:18;;;;;;;3.35;0.65;;;;;;;14.18;69.98;99538.59;1972703;83;20228;-82
2021/10/06 09:56:21;;;;;;;4.88;0.60;;;;;;;14.46;71.09;99544.25;1973018;83;20143;-81
2021/10/06 09:59:24;;;;;;;5.50;0.64;;;;;;;14.89;71.38;99539.06;1972605;82;20203;-82
2021/10/06 10:02:27;;;;;;;7.81;1.19;;;;;;;15.04;70.88;99545.75;1971750;79;38562;-81
2021/10/06 10:05:30;;;;;;;3.24;0.61;;;;;;;14.90;69.38;99540.81;1970024;83;21185;-81
2021/10/06 10:08:33;;;;;;;4.15;0.60;;;;;;;14.57;68.62;99550.16;1973493;83;20275;-81
2021/10/06 10:11:37;;;;;;;4.55;0.50;;;;;;;14.33;69.64;99551.41;1974034;82;20140;-80
2021/10/06 10:14:40;;;;;;;5.31;0.66;;;;;;;14.16;70.48;99556.91;1971308;82;20259;-81
2021/10/06 10:17:43;;;;;;;4.96;0.57;;;;;;;14.05;71.07;99555.38;1971691;79;30254;-81
2021/10/06 10:20:49;;;;;;;2.59;0.60;;;;;;;13.93;70.98;99559.03;1968328;83;20176;-81
2021/10/06 10:24:04;;;;;;;3.92;0.50;;;;;;;13.68;71.79;99584.63;1969344;83;20176;-81
2021/10/06 10:27:08;;;;;;;3.24;0.56;;;;;;;13.46;73.36;99572.72;1972324;83;20539;-81
2021/10/06 10:30:19;;;;;;;3.46;0.50;;;;;;;13.47;75.40;99577.97;1970565;83;20227;-81
2021/10/06 10:33:45;;;;;;;4.38;0.68;;;;;;;13.58;76.29;99585.63;1966595;83;20175;-80
2021/10/06 10:36:48;;;;;;;2.71;0.50;;;;;;;13.62;75.42;99589.91;1965636;83;20203;-80
2021/10/06 10:39:51;;;;;;;5.03;0.86;;;;;;;13.65;75.93;99595.13;1968266;83;20210;-81
2021/10/06 10:42:57;;;;;;;3.61;0.60;;;;;;;13.68;75.29;99582.00;1968027;83;20192;-81
2021/10/06 10:45:59;;;;;;;4.70;0.65;;;;;;;13.73;74.93;99590.63;1968583;83;20196;-81
2021/10/06 10:49:06;;;;;;;5.90;0.85;;;;;;;13.88;74.75;99586.94;1967612;83;20213;-81
2021/10/06 10:52:09;;;;;;;3.05;0.68;;;;;;;13.97;74.10;99588.53;1971147;82;20269;-81
2021/10/06 10:55:14;;;;;;;2.75;0.50;;;;;;;14.03;73.74;99583.25;1966672;83;20203;-81
2021/10/06 10:58:31;;;;;;;5.45;0.69;;;;;;;13.93;72.60;99585.13;1968616;83;20526;-80
2021/10/06 11:01:45;;;;;;;4.88;0.73;;;;;;;13.91;72.06;99579.94;1965688;80;27466;-81
2021/10/06 11:04:58;;;;;;;4.49;0.50;;;;;;;13.87;72.04;99582.63;1968390;83;20282;-81
2021/10/06 11:08:01;;;;;;;3.79;0.60;;;;;;;13.93;72.39;99581.66;1967565;83;20371;-80
2021/10/06 11:11:26;;;;;;;2.74;0.60;;;;;;;13.87;71.16;99586.09;1969742;83;20305;-81
2021/10/06 11:14:29;;;;;;;2.14;0.50;;;;;;;13.82;71.10;99582.69;1966184;83;20175;-81
2021/10/06 11:17:31;;;;;;;6.51;0.86;;;;;;;13.86;70.52;99584.38;1965511;80;25338;-81
2021/10/06 11:20:40;;;;;;;4.75;0.63;;;;;;;13.96;71.06;99582.47;1965732;83;20241;-81
2021/10/06 11:23:45;;;;;;;5.61;0.60;;;;;;;14.06;71.79;99581.44;1967277;83;20223;-81
2021/10/06 11:26:57;;;;;;;8.38;0.71;;;;;;;14.10;71.23;99574.44;1967064;83;20180;-81
2021/10/06 11:30:00;;;;;;;7.35;0.57;;;;;;;13.97;70.80;99567.66;1965470;83;20283;-80
2021/10/06 11:33:03;;;;;;;6.61;0.66;;;;;;;13.79;71.18;99567.03;1958207;79;24217;-80
2021/10/06 11:36:14;;;;;;;2.16;0.56;;;;;;;13.68;71.96;99571.56;1957924;83;20224;-80
2021/10/06 11:39:17;;;;;;;2.97;0.47;;;;;;;13.73;72.37;99580.19;1958303;83;21270;-80
2021/10/06 11:42:29;;;;;;;2.63;0.50;;;;;;;13.74;71.88;99578.44;1959389;83;20184;-81
2021/10/06 11:45:31;;;;;;;4.45;0.50;;;;;;;13.74;72.30;99584.53;1959418;80;25132;-81
2021/10/06 11:48:34;;;;;;;3.46;0.75;;;;;;;13.73;71.92;99585.41;1965778;83;20207;-80
2021/10/06 11:51:44;;;;;;;7.03;1.23;;;;;;;13.72;71.20;99594.13;1965528;83;20294;-80
2021/10/06 11:54:47;;;;;;;0.88;0.40;;;;;;;13.68;71.11;99591.59;1962167;83;20223;-81
2021/10/06 11:57:52;;;;;;;6.35;0.54;;;;;;;13.67;72.50;99598.56;1966479;83;20247;-80
2021/10/06 12:01:10;;;;;;;3.76;0.49;;;;;;;13.50;71.48;99582.25;1962191;80;25848;-81
2021/10/06 12:04:19;;;;;;;1.92;0.41;;;;;;;13.36;71.98;99594.63;1963367;83;20199;-81
2021/10/06 12:07:55;;;;;;;2.66;0.59;;;;;;;13.26;73.19;99593.84;1970892;83;20301;-81
2021/10/06 12:11:22;;;;;;;2.91;0.79;;;;;;;13.05;74.38;99597.53;1960737;83;20194;-81
2021/10/06 12:14:47;;;;;;;5.72;0.95;;;;;;;12.94;75.75;99594.22;1967112;83;20176;-81
2021/10/06 12:17:51;;;;;;;7.03;1.80;;;;;;;12.94;77.04;99602.88;1952596;83;1002877;-81
2021/10/06 12:20:53;;;;;;;7.28;4.06;;;;;;;13.04;78.14;99603.63;1964420;83;20183;-81
2021/10/06 12:24:14;;;;;;;7.34;2.99;;;;;;;13.08;77.43;99615.75;1965791;83;20268;-81
2021/10/06 12:27:55;;;;;;;6.38;1.38;;;;;;;13.12;78.19;99619.22;1966547;83;20175;-81
2021/10/06 12:31:04;;;;;;;5.64;0.80;;;;;;;13.17;78.08;99614.81;1964377;79;33334;-81
2021/10/06 12:34:19;;;;;;;3.30;0.80;;;;;;;13.21;76.74;99625.19;1964153;83;20218;-81
2021/10/06 12:37:52;;;;;;;2.95;0.69;;;;;;;13.20;77.64;99633.91;1965069;83;20184;-81
2021/10/06 12:41:25;;;;;;;5.69;0.50;;;;;;;13.16;78.08;99619.16;1968388;82;20184;-81
2021/10/06 12:45:01;;;;;;;2.22;0.46;;;;;;;13.06;79.15;99624.47;1967092;83;20307;-82
2021/10/06 12:48:18;;;;;;;5.77;0.86;;;;;;;13.04;79.82;99640.13;1393886;80;51875791;-82
2021/10/06 12:51:29;;;;;;;3.46;0.60;;;;;;;12.96;78.99;99641.97;1954282;83;20210;-80
2021/10/06 12:54:33;;;;;;;2.13;0.54;;;;;;;12.90;79.25;99650.69;1952215;83;20188;-81
2021/10/06 12:58:24;;;;;;;2.83;0.59;;;;;;;12.89;79.32;99648.09;1956303;83;20158;-82
2021/10/06 13:02:48;;;;;;;2.44;1.06;;;;;;;12.69;76.08;99632.66;1939722;78;20256;-84
2021/10/06 13:06:15;;;;;;;47.46;30.58;;;;;;;12.50;78.25;99631.09;1968533;83;20201;-82
2021/10/06 13:09:32;;;;;;;8.45;4.86;;;;;;;12.39;78.16;99645.06;1975017;82;20170;-82
2021/10/06 13:13:26;;;;;;;3.26;1.24;;;;;;;12.34;78.94;99643.38;1967785;83;20257;-81
2021/10/06 13:16:44;;;;;;;15.65;11.38;;;;;;;12.26;79.87;99637.38;1970924;83;20197;-82
2021/10/06 13:19:59;;;;;;;2.39;1.19;;;;;;;12.23;80.66;99640.84;1966296;83;20679;-81
2021/10/06 13:23:02;;;;;;;6.90;0.84;;;;;;;12.23;80.87;99650.41;1968094;83;20247;-80
2021/10/06 13:26:14;;;;;;;7.19;2.10;;;;;;;12.22;81.62;99639.13;1966146;83;20201;-81
2021/10/06 13:29:24;;;;;;;6.66;0.93;;;;;;;12.25;82.54;99641.72;1966043;83;20278;-81
2021/10/06 13:32:28;;;;;;;2.61;0.69;;;;;;;12.26;81.98;99647.78;1964947;80;28487;-81
2021/10/06 13:35:31;;;;;;;2.49;0.50;;;;;;;12.38;82.04;99645.91;1964281;83;20225;-81
2021/10/06 13:38:39;;;;;;;2.41;0.50;;;;;;;12.42;82.00;99646.78;1963909;83;20267;-81
2021/10/06 13:41:42;;;;;;;3.20;0.60;;;;;;;12.48;82.97;99656.28;1963851;83;20187;-80
2021/10/06 13:44:45;;;;;;;3.58;0.59;;;;;;;12.52;83.27;99653.63;1963753;82;20260;-81
2021/10/06 13:47:53;;;;;;;3.08;0.66;;;;;;;12.59;83.29;99657.94;1962749;80;30090;-80
2021/10/06 13:50:56;;;;;;;1.08;0.40;;;;;;;12.66;83.36;99657.00;1964206;83;20191;-81
2021/10/06 13:53:59;;;;;;;4.03;0.81;;;;;;;12.71;83.19;99659.56;1965011;83;20196;-81
2021/10/06 13:57:01;;;;;;;2.66;0.51;;;;;;;12.78;83.23;99657.78;1964877;83;20195;-80
2021/10/06 14:00:06;;;;;;;2.81;0.50;;;;;;;12.82;84.47;99662.06;1965182;82;20275;-81
2021/10/06 14:03:09;;;;;;;2.34;0.55;;;;;;;12.81;84.34;99666.44;1963639;80;34137;-80
2021/10/06 14:06:12;;;;;;;2.66;0.40;;;;;;;12.78;83.32;99657.78;1964515;83;20216;-80
2021/10/06 14:09:14;;;;;;;2.29;0.40;;;;;;;12.71;82.82;99655.22;1964816;82;20213;-81
2021/10/06 14:12:18;;;;;;;3.71;0.50;;;;;;;12.64;82.21;99656.16;1965182;82;20690;-80
2021/10/06 14:15:21;;;;;;;5.11;1.51;;;;;;;12.64;82.26;99658.75;1964001;83;20251;-80
2021/10/06 14:18:24;;;;;;;3.21;0.59;;;;;;;12.55;81.35;99666.63;1964003;79;25032;-80
2021/10/06 14:21:27;;;;;;;2.51;0.50;;;;;;;12.46;81.37;99669.31;1965418;82;20216;-80
2021/10/06 14:24:30;;;;;;;2.76;0.60;;;;;;;12.36;81.84;99678.06;1965710;82;20251;-81
2021/10/06 14:27:32;;;;;;;4.65;0.65;;;;;;;12.32;82.34;99684.19;1965646;82;20259;-81
2021/10/06 14:30:36;;;;;;;2.74;0.49;;;;;;;12.29;83.00;99679.84;1966803;82;21463;-82
2021/10/06 14:33:54;;;;;;;4.09;0.79;;;;;;;12.28;83.77;99692.88;1962646;83;20206;-81
2021/10/06 14:37:15;;;;;;;3.76;0.62;;;;;;;12.27;84.66;99692.03;1968429;82;20209;-81
2021/10/06 14:40:31;;;;;;;4.46;0.50;;;;;;;12.28;85.08;99692.88;1969255;83;20183;-81
2021/10/06 14:43:34;;;;;;;2.96;0.90;;;;;;;12.29;85.38;99689.41;1967662;82;20184;-81
2021/10/06 14:46:37;;;;;;;3.64;0.49;;;;;;;12.31;85.56;99695.47;1965456;83;20221;-81
2021/10/06 14:49:39;;;;;;;1.80;0.50;;;;;;;12.34;85.79;99691.09;1966039;82;20240;-80
2021/10/06 14:52:43;;;;;;;1.64;0.50;;;;;;;12.37;85.69;99698.03;1965328;83;20256;-82
2021/10/06 14:55:46;;;;;;;4.11;0.70;;;;;;;12.40;85.88;99714.50;1973385;82;20152;-81
2021/10/06 14:58:49;;;;;;;2.16;0.50;;;;;;;12.43;86.13;99713.63;1967723;83;20251;-81
2021/10/06 15:01:51;;;;;;;2.69;0.50;;;;;;;12.45;86.11;99716.22;1971612;80;34340;-82
2021/10/06 15:05:41;;;;;;;3.96;1.23;;;;;;;12.48;86.06;99717.06;1977951;82;20165;-83
2021/10/06 15:09:45;;;;;;;27.01;18.35;;;;;;;12.46;85.55;99718.81;1977751;82;20339;-82
2021/10/06 15:13:56;;;;;;;15.79;7.60;;;;;;;12.45;85.09;99724.03;1973334;82;20144;-82
2021/10/06 15:18:12;;;;;;;4.28;0.93;;;;;;;12.38;85.11;99733.59;1973288;82;20298;-84
2021/10/06 15:22:29;;;;;;;3.28;1.63;;;;;;;12.30;85.42;99733.66;1969460;82;20196;-83
2021/10/06 15:26:15;;;;;;;5.49;0.70;;;;;;;12.19;85.34;99730.25;1954995;83;20140;-82
2021/10/06 15:29:46;;;;;;;2.55;0.50;;;;;;;12.10;85.86;99730.31;1955835;83;20253;-82
2021/10/06 15:32:58;;;;;;;2.71;0.68;;;;;;;12.03;86.08;99742.50;1951848;84;20199;-82
2021/10/06 15:36:08;;;;;;;4.97;0.75;;;;;;;11.98;86.69;99748.56;1957983;84;20223;-82
2021/10/06 15:39:15;;;;;;;3.79;0.63;;;;;;;11.97;87.06;99741.63;1950965;84;20155;-82
2021/10/06 15:42:22;;;;;;;1.92;0.40;;;;;;;11.97;87.33;99739.91;1954648;84;20147;-82
2021/10/06 15:45:27;;;;;;;2.56;0.47;;;;;;;12.01;87.48;99746.81;1962022;83;20148;-82
2021/10/06 15:48:36;;;;;;;5.00;0.54;;;;;;;12.05;87.44;99745.09;1949389;84;20329;-82
2021/10/06 15:51:44;;;;;;;2.01;0.42;;;;;;;12.10;87.27;99748.53;1961613;84;20139;-81
2021/10/06 15:54:58;;;;;;;6.06;0.60;;;;;;;12.09;86.62;99749.41;1953467;84;20218;-82
2021/10/06 15:58:01;;;;;;;3.04;0.60;;;;;;;12.04;86.63;99745.97;1946587;84;20204;-80
2021/10/06 16:01:08;;;;;;;2.75;0.50;;;;;;;12.04;87.10;99749.44;1944738;83;726548;-81
2021/10/06 16:04:15;;;;;;;;;;;;;;;12.03;87.43;99746.84;1985690;82;20317;-82
2021/10/06 16:07:20;;;;;;;3.09;0.41;;;;;;;12.04;87.70;99751.16;1972719;82;20079;-82
2021/10/06 16:10:27;;;;;;;2.69;0.50;;;;;;;11.97;87.71;99758.13;1975099;82;20254;-81
2021/10/06 16:13:32;;;;;;;3.10;1.15;;;;;;;11.95;87.93;99757.25;1978525;82;20149;-81
2021/10/06 16:16:36;;;;;;;7.54;1.88;;;;;;;11.92;87.85;99759.00;1970768;82;20183;-81
2021/10/06 16:19:39;;;;;;;1.84;0.57;;;;;;;11.89;87.84;99753.84;1982743;82;20158;-81
2021/10/06 16:22:45;;;;;;;3.96;0.59;;;;;;;11.89;88.08;99764.25;1979302;82;20162;-81
2021/10/06 16:25:51;;;;;;;2.88;0.55;;;;;;;11.85;88.20;99763.38;1974436;82;20201;-82
2021/10/06 16:28:54;;;;;;;3.56;0.85;;;;;;;11.80;88.07;99771.19;1982626;82;20191;-84
2021/10/06 16:31:58;;;;;;;2.19;0.44;;;;;;;11.76;88.22;99777.25;1972072;82;20200;-82
2021/10/06 16:35:08;;;;;;;2.46;0.60;;;;;;;11.72;88.26;99774.66;1976559;82;20780;-83
2021/10/06 16:38:11;;;;;;;2.29;0.74;;;;;;;11.66;88.24;99785.94;1972819;82;20152;-83
2021/10/06 16:41:15;;;;;;;2.06;0.52;;;;;;;11.64;88.30;99784.22;1973996;82;20204;-82
2021/10/06 16:44:17;;;;;;;4.90;0.46;;;;;;;11.62;88.49;99792.00;1969734;82;20213;-82
2021/10/06 16:47:20;;;;;;;1.76;0.44;;;;;;;11.61;88.84;99797.22;1969161;82;991435;-81
2021/10/06 16:50:23;;;;;;;3.58;0.59;;;;;;;11.59;88.87;99801.56;1970685;82;20350;-82
2021/10/06 16:53:26;;;;;;;1.81;0.36;;;;;;;11.56;89.02;99802.44;1973152;82;20136;-82
2021/10/06 16:56:29;;;;;;;3.90;0.50;;;;;;;11.54;89.40;99812.00;1974658;83;20258;-82
2021/10/06 16:59:32;;;;;;;2.63;0.40;;;;;;;11.52;89.66;99818.94;1976291;82;20233;-81
2021/10/06 17:02:35;;;;;;;2.08;0.56;;;;;;;11.49;89.93;99817.19;1978335;80;26994;-82
2021/10/06 17:05:40;;;;;;;2.69;0.57;;;;;;;11.47;89.96;99816.31;1973559;82;20188;-82
2021/10/06 17:08:44;;;;;;;4.60;0.45;;;;;;;11.44;89.91;99823.25;1971598;82;20140;-82
2021/10/06 17:11:47;;;;;;;2.46;0.50;;;;;;;11.41;89.90;99824.13;1977473;82;20179;-80
2021/10/06 17:14:49;;;;;;;2.00;0.32;;;;;;;11.41;90.11;99833.66;1972081;82;20144;-84
2021/10/06 17:17:52;;;;;;;3.39;0.40;;;;;;;11.45;90.42;99838.00;1979482;82;20140;-83
2021/10/06 17:20:56;;;;;;;2.63;0.45;;;;;;;11.44;90.34;99839.72;1976164;82;20228;-82
2021/10/06 17:23:59;;;;;;;4.54;0.45;;;;;;;11.41;90.33;99844.94;1976153;82;20192;-82
2021/10/06 17:27:02;;;;;;;3.55;0.80;;;;;;;11.40;90.19;99855.34;1973762;82;20137;-82
2021/10/06 17:30:06;;;;;;;2.49;0.40;;;;;;;11.36;90.08;99859.66;1976735;82;20295;-82
2021/10/06 17:33:11;;;;;;;2.47;0.60;;;;;;;11.34;90.44;99865.75;1981385;82;20168;-82
2021/10/06 17:36:17;;;;;;;2.35;0.44;;;;;;;11.33;90.84;99861.41;1969550;82;20148;-82
2021/10/06 17:39:19;;;;;;;3.04;0.52;;;;;;;11.30;90.97;99867.44;1974374;82;20207;-81
2021/10/06 17:42:22;;;;;;;1.19;0.40;;;;;;;11.29;91.07;99878.72;1975233;82;20140;-81
2021/10/06 17:45:27;;;;;;;2.25;0.57;;;;;;;11.29;91.19;99877.84;1973142;83;20192;-82
2021/10/06 17:48:29;;;;;;;3.16;0.60;;;;;;;11.27;91.06;99882.19;1969762;82;20128;-81
2021/10/06 17:51:32;;;;;;;2.14;0.57;;;;;;;11.29;91.07;99886.50;1972174;82;20180;-82
2021/10/06 17:54:35;;;;;;;2.70;0.63;;;;;;;11.26;91.22;99886.53;1978188;82;20144;-82
2021/10/06 17:57:39;;;;;;;3.26;0.64;;;;;;;11.28;91.44;99891.72;1971537;82;20230;-82
2021/10/06 18:00:41;;;;;;;4.20;0.50;;;;;;;11.25;91.47;99892.59;1976774;79;37644;-80
2021/10/06 18:03:44;;;;;;;2.36;0.59;;;;;;;11.23;91.50;99894.31;1978257;82;20177;-81
2021/10/06 18:06:47;;;;;;;3.78;0.40;;;;;;;11.24;91.75;99905.59;1973804;82;20174;-82
2021/10/06 18:09:49;;;;;;;5.51;0.64;;;;;;;11.23;91.72;99912.50;1977805;82;20144;-82
2021/10/06 18:12:55;;;;;;;2.49;0.89;;;;;;;11.24;91.92;99903.84;1978574;82;20137;-82
2021/10/06 18:15:58;;;;;;;3.15;0.40;;;;;;;11.28;92.13;99912.50;1977096;82;20169;-82
2021/10/06 18:19:03;;;;;;;2.28;0.50;;;;;;;11.27;91.79;99914.25;1972397;82;20219;-83
2021/10/06 18:22:07;;;;;;;3.59;1.15;;;;;;;11.28;91.96;99917.72;1972379;82;20169;-83